createdAt,value
2023-01-09T00:00:46.150Z,69.38
2023-01-09T00:03:13.504Z,69.28
2023-01-09T00:05:40.435Z,69.44
2023-01-09T00:08:07.626Z,68.69
2023-01-09T00:10:34.566Z,68.21
2023-01-09T00:13:01.434Z,68.80
2023-01-09T00:15:28.264Z,68.44
2023-01-09T00:17:54.926Z,67.96
2023-01-09T00:20:21.860Z,67.77
2023-01-09T00:22:48.701Z,67.17
2023-01-09T00:25:15.469Z,67.00
2023-01-09T00:27:42.304Z,65.68
2023-01-09T00:30:09.709Z,66.57
2023-01-09T00:32:36.544Z,64.34
2023-01-09T00:35:03.270Z,65.35
2023-01-09T00:37:30.114Z,64.29
2023-01-09T00:39:56.795Z,63.83
2023-01-09T00:42:26.638Z,64.19
2023-01-09T00:44:56.956Z,63.78
2023-01-09T00:47:28.423Z,64.24
2023-01-09T00:49:55.948Z,63.71
2023-01-09T00:52:22.825Z,63.64
2023-01-09T00:54:49.989Z,63.72
2023-01-09T00:57:17.019Z,63.67
2023-01-09T00:59:44.361Z,64.39
2023-01-09T01:02:11.594Z,63.99
2023-01-09T01:04:57.026Z,63.52
2023-01-09T01:07:39.276Z,61.98
2023-01-09T01:10:08.902Z,61.40
2023-01-09T01:12:35.749Z,61.68
2023-01-09T01:15:02.595Z,61.55
2023-01-09T01:17:29.258Z,62.08
2023-01-09T01:19:56.526Z,61.20
2023-01-09T01:22:23.374Z,60.17
2023-01-09T01:24:50.284Z,61.11
2023-01-09T01:27:17.152Z,60.66
2023-01-09T01:29:44.145Z,61.27
2023-01-09T01:32:11.892Z,60.89
2023-01-09T01:34:38.725Z,61.44
2023-01-09T01:37:05.686Z,60.97
2023-01-09T01:39:32.594Z,60.65
2023-01-09T01:41:59.433Z,61.41
2023-01-09T01:44:44.860Z,61.79
2023-01-09T01:47:11.746Z,61.29
2023-01-09T01:49:38.608Z,61.18
2023-01-09T01:52:05.544Z,61.06
2023-01-09T01:54:33.071Z,60.98
2023-01-09T01:57:03.397Z,61.02
2023-01-09T01:59:41.456Z,62.45
2023-01-09T02:02:08.597Z,62.35
2023-01-09T02:04:39.357Z,62.62
2023-01-09T02:07:09.492Z,60.71
2023-01-09T02:09:38.060Z,60.67
2023-01-09T02:12:25.590Z,62.77
2023-01-09T02:14:55.263Z,63.82
2023-01-09T02:17:46.419Z,61.10
2023-01-09T02:20:37.119Z,60.61
2023-01-09T02:23:28.930Z,59.54
2023-01-09T02:26:01.878Z,60.65
2023-01-09T02:28:34.760Z,57.94
2023-01-09T02:31:04.201Z,58.90
2023-01-09T02:33:39.897Z,58.85
2023-01-09T02:36:17.455Z,59.14
2023-01-09T02:39:16.740Z,58.68
2023-01-09T02:41:52.911Z,59.74
2023-01-09T02:44:26.165Z,58.68
2023-01-09T02:47:15.596Z,60.21
2023-01-09T02:50:02.874Z,58.81
2023-01-09T02:53:00.776Z,57.74
2023-01-09T02:55:46.016Z,57.63
2023-01-09T02:58:41.780Z,58.95
2023-01-09T03:01:24.060Z,58.41
2023-01-09T03:04:11.226Z,57.45
2023-01-09T03:06:54.449Z,57.04
2023-01-09T03:09:24.224Z,56.23
2023-01-09T03:11:55.620Z,57.96
2023-01-09T03:14:24.102Z,56.03
2023-01-09T03:16:54.877Z,55.43
2023-01-09T03:19:24.604Z,55.89
2023-01-09T03:21:53.159Z,55.69
2023-01-09T03:24:20.023Z,53.01
2023-01-09T03:26:46.970Z,55.39
2023-01-09T03:29:14.031Z,54.72
2023-01-09T03:31:40.938Z,54.91
2023-01-09T03:34:07.966Z,57.10
2023-01-09T03:36:34.861Z,54.71
2023-01-09T03:39:01.708Z,54.00
2023-01-09T03:41:28.591Z,54.70
2023-01-09T03:43:55.431Z,57.87
2023-01-09T03:46:22.320Z,58.60
2023-01-09T03:48:49.178Z,56.19
2023-01-09T03:51:16.047Z,55.52
2023-01-09T03:53:42.894Z,57.26
2023-01-09T03:56:09.865Z,58.07
2023-01-09T03:58:36.744Z,58.28
2023-01-09T04:01:05.767Z,60.22
2023-01-09T04:03:32.797Z,58.35
2023-01-09T04:05:59.960Z,60.46
2023-01-09T04:08:26.862Z,59.21
2023-01-09T04:10:53.794Z,59.76
2023-01-09T04:13:20.679Z,61.59
2023-01-09T04:15:47.545Z,63.88
2023-01-09T04:18:14.880Z,60.88
2023-01-09T04:20:42.329Z,59.95
2023-01-09T04:23:09.201Z,60.64
2023-01-09T04:25:36.121Z,62.12
2023-01-09T04:28:03.047Z,62.69
2023-01-09T04:30:29.935Z,66.82
2023-01-09T04:32:56.849Z,66.54
2023-01-09T04:35:23.798Z,67.01
2023-01-09T04:37:50.717Z,66.78
2023-01-09T04:40:18.239Z,65.51
2023-01-09T04:42:45.109Z,64.04
2023-01-09T04:45:12.599Z,65.96
2023-01-09T04:47:39.422Z,65.35
2023-01-09T04:50:06.173Z,64.19
2023-01-09T04:52:33.054Z,63.16
2023-01-09T04:54:59.944Z,62.54
2023-01-09T04:57:26.880Z,62.37
2023-01-09T04:59:54.366Z,63.12
2023-01-09T05:02:21.440Z,63.85
2023-01-09T05:04:48.525Z,64.92
2023-01-09T05:07:15.389Z,65.66
2023-01-09T05:09:43.087Z,65.85
2023-01-09T05:12:09.972Z,65.65
2023-01-09T05:14:36.845Z,64.02
2023-01-09T05:17:03.710Z,67.10
2023-01-09T05:19:30.588Z,68.04
2023-01-09T05:21:57.423Z,70.89
2023-01-09T05:24:24.095Z,71.71
2023-01-09T05:26:51.028Z,71.25
2023-01-09T05:29:17.947Z,75.74
2023-01-09T05:31:44.924Z,76.91
2023-01-09T05:34:11.907Z,75.11
2023-01-09T05:36:38.778Z,74.58
2023-01-09T05:39:06.702Z,77.74
2023-01-09T05:41:33.627Z,79.78
2023-01-09T05:44:00.488Z,78.63
2023-01-09T05:46:27.346Z,78.60
2023-01-09T05:48:54.246Z,80.87
2023-01-09T05:51:21.119Z,84.75
2023-01-09T05:53:47.985Z,85.03
2023-01-09T05:56:14.937Z,84.65
2023-01-09T05:58:41.884Z,85.74
2023-01-09T06:01:09.164Z,86.23
2023-01-09T06:03:36.019Z,86.31
2023-01-09T06:06:02.717Z,88.32
2023-01-09T06:08:29.535Z,91.55
2023-01-09T06:10:56.217Z,89.58
2023-01-09T06:13:23.071Z,90.58
2023-01-09T06:15:49.989Z,92.12
2023-01-09T06:18:17.022Z,92.18
2023-01-09T06:20:46.697Z,91.01
2023-01-09T06:23:13.899Z,92.15
2023-01-09T06:25:41.339Z,91.88
2023-01-09T06:28:08.314Z,91.04
2023-01-09T06:30:35.338Z,91.26
2023-01-09T06:33:02.277Z,90.59
2023-01-09T06:35:29.257Z,93.30
2023-01-09T06:37:57.457Z,90.49
2023-01-09T06:40:24.360Z,89.91
2023-01-09T06:42:51.278Z,85.84
2023-01-09T06:45:18.285Z,87.87
2023-01-09T06:47:45.143Z,85.14
2023-01-09T06:50:12.459Z,88.82
2023-01-09T06:52:39.567Z,91.06
2023-01-09T06:55:07.876Z,87.16
2023-01-09T06:57:35.209Z,94.45
2023-01-09T07:00:02.421Z,93.53
2023-01-09T07:02:29.393Z,94.38
2023-01-09T07:04:56.505Z,96.88
2023-01-09T07:07:23.695Z,96.36
2023-01-09T07:15:17.902Z,92.19
2023-01-09T07:17:44.842Z,93.42
2023-01-09T07:20:12.055Z,94.29
2023-01-09T07:22:38.907Z,91.11
2023-01-09T07:25:06.083Z,86.51
2023-01-09T07:27:32.997Z,91.13
2023-01-09T07:29:59.876Z,87.32
2023-01-09T07:32:26.826Z,89.29
2023-01-09T07:34:53.680Z,87.64
2023-01-09T07:37:20.576Z,85.73
2023-01-09T07:39:47.406Z,88.60
2023-01-09T07:42:14.582Z,86.50
2023-01-09T07:44:41.473Z,85.34
2023-01-09T07:47:08.818Z,84.71
2023-01-09T07:49:35.648Z,84.14
2023-01-09T07:52:02.608Z,89.41
2023-01-09T07:54:29.438Z,88.10
2023-01-09T07:56:56.384Z,88.63
2023-01-09T07:59:23.531Z,89.74
2023-01-09T08:01:50.489Z,88.00
2023-01-09T08:04:17.447Z,89.93
2023-01-09T08:06:44.281Z,89.60
2023-01-09T08:09:11.002Z,89.69
2023-01-09T08:11:43.856Z,91.01
2023-01-09T08:14:10.721Z,97.34
2023-01-09T08:16:37.581Z,92.59
2023-01-09T08:19:04.478Z,94.76
2023-01-09T08:21:31.359Z,94.02
2023-01-09T08:23:58.195Z,97.92
2023-01-09T08:26:24.887Z,96.82
2023-01-09T08:28:51.861Z,96.65
2023-01-09T08:31:18.814Z,96.17
2023-01-09T08:33:45.658Z,94.07
2023-01-09T08:36:12.441Z,94.59
2023-01-09T08:38:39.311Z,95.58
2023-01-09T08:41:26.266Z,95.87
2023-01-09T08:44:11.638Z,95.18
2023-01-09T08:46:57.272Z,94.02
2023-01-09T08:49:24.172Z,96.57
2023-01-09T08:51:51.057Z,99.06
2023-01-09T08:54:17.936Z,97.00
2023-01-09T08:56:44.880Z,94.23
2023-01-09T08:59:11.997Z,91.16
2023-01-09T09:01:38.983Z,90.78
2023-01-09T09:04:06.089Z,90.72
2023-01-09T09:06:33.768Z,88.26
2023-01-09T09:09:03.761Z,90.41
2023-01-09T09:11:31.077Z,84.46
2023-01-09T09:13:58.258Z,85.33
2023-01-09T09:16:28.281Z,83.09
2023-01-09T09:18:55.197Z,83.79
2023-01-09T09:21:27.860Z,83.08
2023-01-09T09:23:57.993Z,80.06
2023-01-09T09:26:24.855Z,79.06
2023-01-09T09:28:51.787Z,77.40
2023-01-09T09:31:18.747Z,81.56
2023-01-09T09:33:45.615Z,82.74
2023-01-09T09:36:12.514Z,79.85
2023-01-09T09:38:39.339Z,83.21
2023-01-09T09:41:38.229Z,82.65
2023-01-09T09:44:36.463Z,85.72
2023-01-09T09:47:13.674Z,80.04
2023-01-09T09:49:52.620Z,81.62
2023-01-09T09:52:31.570Z,72.67
2023-01-09T09:55:01.708Z,69.15
2023-01-09T10:00:51.223Z,67.71
2023-01-09T10:12:28.596Z,74.75
2023-01-09T10:14:58.308Z,71.96
2023-01-09T10:23:11.830Z,71.44
2023-01-09T10:29:08.586Z,80.87
2023-01-09T10:32:18.401Z,78.67
2023-01-09T10:35:11.275Z,82.05
2023-01-09T10:43:55.051Z,84.34
2023-01-09T10:49:17.916Z,85.28
2023-01-09T10:51:57.685Z,85.97
2023-01-09T11:00:24.092Z,78.04
2023-01-09T11:02:53.103Z,83.45
2023-01-09T11:26:25.577Z,87.04
2023-01-09T11:37:26.508Z,90.54
2023-01-09T11:45:04.350Z,96.77
2023-01-09T11:53:19.750Z,99.45
2023-01-09T11:55:47.913Z,97.74
2023-01-09T11:58:21.190Z,94.87
2023-01-09T12:04:29.189Z,91.28
2023-01-09T12:07:16.978Z,90.65
2023-01-09T12:09:47.079Z,95.45
2023-01-09T12:12:22.856Z,94.51
2023-01-09T12:15:21.886Z,91.85
2023-01-09T12:18:26.081Z,90.63
2023-01-09T12:21:17.907Z,94.14
2023-01-09T12:24:12.088Z,90.96
2023-01-09T12:26:58.724Z,92.49
2023-01-09T12:35:54.910Z,91.00
2023-01-09T12:41:45.022Z,91.25
2023-01-09T12:44:35.079Z,93.42
2023-01-09T12:47:23.894Z,93.45
2023-01-09T12:50:25.866Z,96.90
2023-01-09T12:53:17.436Z,99.57
2023-01-09T12:56:08.324Z,100.00
2023-01-09T12:58:59.943Z,100.00
2023-01-09T13:01:33.130Z,100.00
2023-01-09T13:04:28.154Z,100.00
2023-01-09T13:06:59.351Z,100.00
2023-01-09T13:09:44.025Z,100.00
2023-01-09T13:12:29.328Z,100.00
2023-01-09T13:15:06.305Z,100.00
2023-01-09T13:18:13.121Z,100.00
2023-01-09T13:20:56.642Z,100.00
2023-01-09T13:23:34.313Z,100.00
2023-01-09T13:26:07.535Z,100.00
2023-01-09T13:28:47.209Z,100.00
2023-01-09T13:31:23.482Z,100.00
2023-01-09T13:33:54.668Z,100.00
2023-01-09T13:36:48.170Z,100.00
2023-01-09T13:39:27.328Z,100.00
2023-01-09T13:42:20.919Z,98.24
2023-01-09T13:44:48.993Z,100.00
2023-01-09T13:47:28.178Z,100.00
2023-01-09T13:50:01.278Z,100.00
2023-01-09T13:52:54.180Z,100.00
2023-01-09T13:55:24.173Z,100.00
2023-01-09T13:58:06.643Z,100.00
2023-01-09T14:00:36.607Z,100.00
2023-01-09T14:03:23.360Z,100.00
2023-01-09T14:05:50.136Z,100.00
2023-01-09T14:08:20.389Z,100.00
2023-01-09T14:10:52.331Z,100.00
2023-01-09T14:13:23.316Z,100.00
2023-01-09T14:15:51.694Z,100.00
2023-01-09T14:18:29.929Z,100.00
2023-01-09T14:23:54.339Z,100.00
2023-01-09T14:26:44.941Z,100.00
2023-01-09T14:29:36.702Z,100.00
2023-01-09T14:32:30.893Z,100.00
2023-01-09T14:35:11.100Z,100.00
2023-01-09T14:37:40.680Z,100.00
2023-01-09T14:40:15.392Z,100.00
2023-01-09T14:42:42.597Z,100.00
2023-01-09T14:45:19.598Z,100.00
2023-01-09T14:48:03.367Z,100.00
2023-01-09T14:50:37.869Z,100.00
2023-01-09T14:53:12.504Z,100.00
2023-01-09T14:55:48.903Z,99.37
2023-01-09T14:58:18.445Z,100.00
2023-01-09T15:00:55.005Z,96.24
2023-01-09T15:03:23.170Z,97.17
2023-01-09T15:05:52.874Z,94.85
2023-01-09T15:08:23.089Z,97.42
2023-01-09T15:10:51.768Z,95.87
2023-01-09T15:13:30.887Z,95.59
2023-01-09T15:15:58.612Z,96.39
2023-01-09T15:18:27.886Z,94.77
2023-01-09T15:20:59.172Z,93.28
2023-01-09T15:23:30.598Z,97.12
2023-01-09T15:26:12.241Z,100.00
2023-01-09T15:28:43.053Z,98.79
2023-01-09T15:31:18.393Z,98.88
2023-01-09T15:33:46.890Z,100.00
2023-01-09T15:36:25.641Z,100.00
2023-01-09T15:38:52.979Z,98.98
2023-01-09T15:41:44.115Z,98.72
2023-01-09T15:44:24.223Z,98.91
2023-01-09T15:46:51.989Z,99.42
2023-01-09T15:49:19.746Z,99.15
2023-01-09T15:51:47.202Z,100.00
2023-01-09T15:54:15.680Z,100.00
2023-01-09T15:56:45.562Z,100.00
2023-01-09T15:59:28.791Z,100.00
2023-01-09T16:02:24.652Z,100.00
2023-01-09T16:04:53.138Z,100.00
2023-01-09T16:07:20.861Z,100.00
2023-01-09T16:09:48.877Z,100.00
2023-01-09T16:12:21.561Z,100.00
2023-01-09T16:14:53.642Z,100.00
2023-01-09T16:17:24.027Z,100.00
2023-01-09T16:19:53.766Z,96.68
2023-01-09T16:22:32.040Z,96.63
2023-01-09T16:25:01.161Z,98.54
2023-01-09T16:27:30.650Z,99.90
2023-01-09T16:30:06.360Z,99.57
2023-01-09T16:32:45.998Z,100.00
2023-01-09T16:35:18.485Z,100.00
2023-01-09T16:37:45.355Z,100.00
2023-01-09T16:40:15.065Z,98.38
2023-01-09T16:43:00.639Z,100.00
2023-01-09T16:45:29.471Z,100.00
2023-01-09T16:47:58.174Z,98.33
2023-01-09T16:50:25.555Z,100.00
2023-01-09T16:52:53.155Z,97.94
2023-01-09T16:55:20.042Z,100.00
2023-01-09T16:57:46.950Z,97.54
2023-01-09T17:00:18.941Z,98.72
2023-01-09T17:02:46.231Z,98.02
2023-01-09T17:05:13.240Z,96.81
2023-01-09T17:07:40.135Z,94.75
2023-01-09T17:10:10.775Z,92.33
2023-01-09T17:12:38.731Z,92.60
2023-01-09T17:15:06.050Z,89.45
2023-01-09T17:17:32.925Z,94.16
2023-01-09T17:19:59.776Z,92.76
2023-01-09T17:22:26.439Z,94.51
2023-01-09T17:25:11.976Z,95.75
2023-01-09T17:27:57.747Z,93.12
2023-01-09T17:30:24.666Z,97.82
2023-01-09T17:32:51.676Z,100.00
2023-01-09T17:35:18.584Z,97.02
2023-01-09T17:37:45.459Z,100.00
2023-01-09T17:40:18.828Z,99.46
2023-01-09T17:42:45.765Z,99.37
2023-01-09T17:45:12.654Z,98.72
2023-01-09T17:47:39.555Z,100.00
2023-01-09T17:50:07.159Z,100.00
2023-01-09T17:52:34.059Z,100.00
2023-01-09T17:55:05.470Z,100.00
2023-01-09T17:57:33.100Z,100.00
2023-01-09T18:00:00.030Z,100.00
2023-01-09T18:02:27.014Z,100.00
2023-01-09T18:04:54.004Z,100.00
2023-01-09T18:07:20.892Z,100.00
2023-01-09T18:09:47.790Z,100.00
2023-01-09T18:12:14.828Z,100.00
2023-01-09T18:14:42.341Z,100.00
2023-01-09T18:17:12.354Z,98.99
2023-01-09T18:19:39.256Z,98.23
2023-01-09T18:22:06.255Z,99.33
2023-01-09T18:24:33.089Z,98.41
2023-01-09T18:26:59.765Z,99.17
2023-01-09T18:29:26.629Z,98.91
2023-01-09T18:31:53.469Z,97.29
2023-01-09T18:34:20.424Z,95.73
2023-01-09T18:36:47.455Z,95.85
2023-01-09T18:39:14.399Z,92.49
2023-01-09T18:41:41.269Z,94.13
2023-01-09T18:44:09.067Z,95.57
2023-01-09T18:46:38.456Z,96.35
2023-01-09T18:49:05.547Z,97.52
2023-01-09T18:51:34.641Z,95.62
2023-01-09T18:54:01.680Z,94.56
2023-01-09T18:56:28.538Z,93.03
2023-01-09T18:58:56.868Z,92.13
2023-01-09T19:01:24.499Z,93.86
2023-01-09T19:03:51.478Z,92.50
2023-01-09T19:06:18.404Z,92.19
2023-01-09T19:08:45.377Z,92.38
2023-01-09T19:11:12.275Z,94.10
2023-01-09T19:13:39.289Z,93.15
2023-01-09T19:16:08.234Z,91.95
2023-01-09T19:18:37.940Z,92.68
2023-01-09T19:21:22.205Z,93.76
2023-01-09T19:23:49.853Z,90.13
2023-01-09T19:26:23.851Z,88.71
2023-01-09T19:28:52.040Z,92.70
2023-01-09T19:31:19.083Z,91.92
2023-01-09T19:33:46.001Z,93.99
2023-01-09T19:36:12.892Z,95.56
2023-01-09T19:38:39.772Z,94.29
2023-01-09T19:41:13.106Z,95.25
2023-01-09T19:43:43.443Z,92.50
2023-01-09T19:46:12.892Z,95.25
2023-01-09T19:48:39.854Z,96.03
2023-01-09T19:51:07.827Z,96.58
2023-01-09T19:53:36.148Z,94.40
2023-01-09T19:56:22.865Z,96.35
2023-01-09T19:58:58.172Z,96.84
2023-01-09T20:01:27.588Z,96.63
2023-01-09T20:03:56.635Z,94.28
2023-01-09T20:06:25.092Z,95.65
2023-01-09T20:08:56.984Z,92.84
2023-01-09T20:11:25.592Z,95.21
2023-01-09T20:13:52.501Z,96.68
2023-01-09T20:16:21.615Z,93.98
2023-01-09T20:18:48.888Z,96.60
2023-01-09T20:23:52.777Z,94.18
2023-01-09T20:26:20.787Z,93.77
2023-01-09T20:28:47.955Z,91.60
2023-01-09T20:31:17.421Z,93.71
2023-01-09T20:33:45.367Z,94.76
2023-01-09T20:36:12.434Z,96.78
2023-01-09T20:38:40.255Z,95.97
2023-01-09T20:41:12.778Z,96.96
2023-01-09T20:43:40.408Z,98.72
2023-01-09T20:46:07.767Z,95.76
2023-01-09T20:48:34.693Z,93.27
2023-01-09T20:51:08.212Z,95.34
2023-01-09T20:53:35.142Z,95.01
2023-01-09T20:56:05.009Z,93.23
2023-01-09T20:58:31.919Z,93.79
2023-01-09T21:01:11.216Z,93.91
2023-01-09T21:03:38.407Z,93.33
2023-01-09T21:06:10.076Z,91.00
2023-01-09T21:08:37.885Z,91.92
2023-01-09T21:11:05.418Z,91.54
2023-01-09T21:13:32.297Z,92.34
2023-01-09T21:16:09.891Z,89.53
2023-01-09T21:18:37.542Z,89.95
2023-01-09T21:21:06.028Z,93.02
2023-01-09T21:23:33.353Z,95.87
2023-01-09T21:26:00.358Z,94.70
2023-01-09T21:28:29.275Z,94.42
2023-01-09T21:30:56.193Z,93.67
2023-01-09T21:33:23.127Z,92.31
2023-01-09T21:35:57.177Z,92.92
2023-01-09T21:38:25.485Z,93.68
2023-01-09T21:40:53.388Z,95.46
2023-01-09T21:43:44.835Z,94.86
2023-01-09T21:46:34.332Z,95.22
2023-01-09T21:49:05.975Z,92.60
2023-01-09T21:51:38.979Z,93.42
2023-01-09T21:54:05.868Z,95.92
2023-01-09T21:56:32.502Z,96.56
2023-01-09T21:58:59.425Z,97.39
2023-01-09T22:01:26.291Z,96.31
2023-01-09T22:03:56.512Z,94.35
2023-01-09T22:06:23.912Z,99.14
2023-01-09T22:08:51.254Z,99.63
2023-01-09T22:11:18.110Z,99.79
2023-01-09T22:13:48.273Z,99.48
2023-01-09T22:16:15.229Z,96.57
2023-01-09T22:18:42.107Z,96.19
2023-01-09T22:21:08.848Z,96.32
2023-01-09T22:23:35.897Z,95.29
2023-01-09T22:26:10.917Z,98.88
2023-01-09T22:28:37.742Z,96.33
2023-01-09T22:31:08.583Z,98.67
2023-01-09T22:33:35.663Z,96.52
2023-01-09T22:36:10.188Z,98.63
2023-01-09T22:38:37.428Z,97.28
2023-01-09T22:41:04.382Z,97.53
2023-01-09T22:43:31.824Z,97.10
2023-01-09T22:46:00.716Z,96.81
2023-01-09T22:48:28.990Z,94.97
2023-01-09T22:50:59.864Z,99.59
2023-01-09T22:53:26.700Z,94.97
2023-01-09T22:55:56.937Z,96.46
2023-01-09T22:58:24.764Z,96.10
2023-01-09T23:00:52.488Z,96.36
2023-01-09T23:03:19.527Z,100.00
2023-01-09T23:05:46.475Z,100.00
2023-01-09T23:08:14.339Z,97.22
2023-01-09T23:10:41.813Z,96.47
2023-01-09T23:13:08.729Z,97.63
2023-01-09T23:15:35.579Z,96.06
2023-01-09T23:18:02.217Z,96.84
2023-01-09T23:20:29.103Z,98.39
2023-01-09T23:22:58.265Z,99.42
2023-01-09T23:25:25.781Z,96.81
2023-01-09T23:27:52.648Z,96.40
2023-01-09T23:30:19.327Z,98.68
2023-01-09T23:32:46.264Z,99.04
2023-01-09T23:35:16.206Z,98.05
2023-01-09T23:37:44.005Z,96.19
2023-01-09T23:40:12.004Z,97.39
2023-01-09T23:42:57.925Z,99.10
2023-01-09T23:45:24.828Z,97.31
2023-01-09T23:47:51.751Z,96.35
2023-01-09T23:50:18.854Z,99.90
2023-01-09T23:52:45.901Z,97.89
2023-01-09T23:55:12.812Z,95.55
2023-01-09T23:57:39.653Z,97.00
